Airport View

Enter AWOS ICAO identifier for current METAR.

ex. KFNL

KBOI 202353Z 33013KT 10SM BKN070 OVC090 19/04 A2998 RMK AO2 SLP140 T01940044 10206 20161 53007

21 Sep 2019 00:25

Phone: 208-388-4640

Other Area AWOS: KMAN - KEUL - KMUO - KONO

TAF KBOI 202326Z 2100/2124 31015G25KT P6SM SCT050 FM210200 31008KT P6SM FEW050 SCT150 FM210900 15004KT P6SM SCT150 FM211700 31010KT P6SM SCT150